createdAt,value
2019-01-29T00:01:39.867Z,24.90
2019-01-29T00:04:08.613Z,25.08
2019-01-29T00:06:37.394Z,25.68
2019-01-29T00:09:09.077Z,25.20
2019-01-29T00:11:37.839Z,24.90
2019-01-29T00:14:06.308Z,23.95
2019-01-29T00:16:34.761Z,24.50
2019-01-29T00:19:03.188Z,23.98
2019-01-29T00:21:31.939Z,24.98
2019-01-29T00:24:00.366Z,23.85
2019-01-29T00:26:28.818Z,22.73
2019-01-29T00:28:57.247Z,21.62
2019-01-29T00:31:25.960Z,24.05
2019-01-29T00:33:54.682Z,24.98
2019-01-29T00:36:23.472Z,25.00
2019-01-29T00:38:52.255Z,25.23
2019-01-29T00:41:21.061Z,24.35
2019-01-29T00:43:49.523Z,24.45
2019-01-29T00:46:18.315Z,26.05
2019-01-29T00:48:46.778Z,24.37
2019-01-29T00:51:16.714Z,25.17
2019-01-29T00:53:45.498Z,23.75
2019-01-29T00:56:14.286Z,24.27
2019-01-29T00:58:42.730Z,22.30
2019-01-29T01:01:11.154Z,21.60
2019-01-29T01:03:39.600Z,21.40
2019-01-29T01:06:08.309Z,22.17
2019-01-29T01:08:38.445Z,21.87
2019-01-29T01:11:06.996Z,22.07
2019-01-29T01:13:35.694Z,21.30
2019-01-29T01:16:04.127Z,20.92
2019-01-29T01:18:33.486Z,20.02
2019-01-29T01:21:01.923Z,20.50
2019-01-29T01:23:30.616Z,18.73
2019-01-29T01:25:59.327Z,18.67
2019-01-29T01:28:27.766Z,17.67
2019-01-29T01:30:56.197Z,17.95
2019-01-29T01:33:24.639Z,18.57
2019-01-29T01:35:53.088Z,17.48
2019-01-29T01:38:21.534Z,18.20
2019-01-29T01:40:50.206Z,17.50
2019-01-29T01:43:19.000Z,17.12
2019-01-29T01:45:47.432Z,16.50
2019-01-29T01:48:15.956Z,17.30
2019-01-29T01:50:44.385Z,16.37
2019-01-29T01:53:13.127Z,17.55
2019-01-29T01:55:41.871Z,16.10
2019-01-29T01:58:10.320Z,16.55
2019-01-29T02:00:39.087Z,17.37
2019-01-29T02:03:07.539Z,18.05
2019-01-29T02:05:35.970Z,15.68
2019-01-29T02:08:04.423Z,16.90
2019-01-29T02:10:32.873Z,18.32
2019-01-29T02:13:01.304Z,16.55
2019-01-29T02:15:29.747Z,16.35
2019-01-29T02:17:58.186Z,15.88
2019-01-29T02:20:26.631Z,16.25
2019-01-29T02:22:55.148Z,16.80
2019-01-29T02:25:24.198Z,16.40
2019-01-29T02:27:52.624Z,17.07
2019-01-29T02:30:22.944Z,14.85
2019-01-29T02:32:51.697Z,15.43
2019-01-29T02:35:20.821Z,14.33
2019-01-29T02:37:49.640Z,14.73
2019-01-29T02:40:20.507Z,13.55
2019-01-29T02:42:48.941Z,14.85
2019-01-29T02:45:19.116Z,14.10
2019-01-29T02:47:47.599Z,12.65
2019-01-29T02:50:16.115Z,12.65
2019-01-29T02:52:45.224Z,12.23
2019-01-29T02:55:14.070Z,11.65
2019-01-29T02:57:42.809Z,12.20
2019-01-29T03:00:14.640Z,12.58
2019-01-29T03:02:43.067Z,13.15
2019-01-29T03:05:12.192Z,12.70
2019-01-29T03:07:42.795Z,11.83
2019-01-29T03:10:12.900Z,10.90
2019-01-29T03:12:41.410Z,11.30
2019-01-29T03:15:12.808Z,12.68
2019-01-29T03:17:41.226Z,11.48
2019-01-29T03:20:10.235Z,11.88
2019-01-29T03:22:38.664Z,13.60
2019-01-29T03:25:08.604Z,13.28
2019-01-29T03:27:37.524Z,13.43
2019-01-29T03:30:07.297Z,14.60
2019-01-29T03:32:36.218Z,14.75
2019-01-29T03:35:05.793Z,16.30
2019-01-29T03:37:34.264Z,16.45
2019-01-29T03:40:02.998Z,14.50
2019-01-29T03:42:31.463Z,16.02
2019-01-29T03:44:59.900Z,15.43
2019-01-29T03:47:28.334Z,15.88
2019-01-29T03:49:56.780Z,15.70
2019-01-29T03:52:25.510Z,15.95
2019-01-29T03:54:53.960Z,14.05
2019-01-29T03:57:22.399Z,17.23
2019-01-29T03:59:50.831Z,16.90
2019-01-29T04:02:19.633Z,16.00
2019-01-29T04:04:48.331Z,17.80
2019-01-29T04:07:16.787Z,18.23
2019-01-29T04:09:45.291Z,17.52
2019-01-29T04:12:13.727Z,17.60
2019-01-29T04:14:42.451Z,16.90
2019-01-29T04:17:10.896Z,17.27
2019-01-29T04:19:39.320Z,17.95
2019-01-29T04:22:07.811Z,17.25
2019-01-29T04:24:36.604Z,17.23
2019-01-29T04:27:05.336Z,16.37
2019-01-29T04:29:34.040Z,15.58
2019-01-29T04:32:02.486Z,17.70
2019-01-29T04:34:31.579Z,15.13
2019-01-29T04:37:00.306Z,14.03
2019-01-29T04:39:29.090Z,14.03
2019-01-29T04:41:57.875Z,13.43
2019-01-29T04:44:26.321Z,14.65
2019-01-29T04:46:55.011Z,13.45
2019-01-29T04:49:23.739Z,12.73
2019-01-29T04:51:52.182Z,12.25
2019-01-29T04:54:20.642Z,14.43
2019-01-29T04:56:49.055Z,13.75
2019-01-29T04:59:17.554Z,13.48
2019-01-29T05:01:46.010Z,16.30
2019-01-29T05:04:14.449Z,18.32
2019-01-29T05:06:42.885Z,19.60
2019-01-29T05:09:11.685Z,21.87
2019-01-29T05:11:40.979Z,18.90
2019-01-29T05:14:09.418Z,20.77
2019-01-29T05:16:37.859Z,21.82
2019-01-29T05:19:06.306Z,22.60
2019-01-29T05:21:34.754Z,22.30
2019-01-29T05:24:06.764Z,22.17
2019-01-29T05:26:33.978Z,34.38
2019-01-29T05:29:02.442Z,22.65
2019-01-29T05:31:31.404Z,21.97
2019-01-29T05:33:59.834Z,25.30
2019-01-29T05:36:28.264Z,24.87
2019-01-29T05:38:56.715Z,25.45
2019-01-29T05:41:25.166Z,25.50
2019-01-29T05:43:53.865Z,18.35
2019-01-29T05:46:22.291Z,21.85
2019-01-29T05:48:51.036Z,23.07
2019-01-29T05:51:19.811Z,20.80
2019-01-29T05:53:48.503Z,16.55
2019-01-29T05:56:16.931Z,15.15
2019-01-29T05:58:45.706Z,14.93
2019-01-29T06:01:14.468Z,19.07
2019-01-29T06:03:42.903Z,16.07
2019-01-29T06:06:11.650Z,14.30
2019-01-29T06:08:40.448Z,16.45
2019-01-29T06:11:11.929Z,14.38
2019-01-29T06:13:40.987Z,17.82
2019-01-29T06:16:09.739Z,24.45
2019-01-29T06:18:38.186Z,24.23
2019-01-29T06:21:07.352Z,14.68
2019-01-29T06:23:35.808Z,19.65
2019-01-29T06:26:04.644Z,21.75
2019-01-29T06:28:33.086Z,15.50
2019-01-29T06:31:02.079Z,17.40
2019-01-29T06:33:30.519Z,17.57
2019-01-29T06:36:02.048Z,17.42
2019-01-29T06:38:30.477Z,19.27
2019-01-29T06:40:58.915Z,33.40
2019-01-29T06:43:27.470Z,22.20
2019-01-29T06:45:56.159Z,20.05
2019-01-29T06:48:24.650Z,24.35
2019-01-29T06:50:53.171Z,22.62
2019-01-29T06:53:21.578Z,24.05
2019-01-29T06:55:50.280Z,18.95
2019-01-29T06:58:18.715Z,20.17
2019-01-29T07:00:47.158Z,21.85
2019-01-29T07:03:15.623Z,48.33
2019-01-29T07:05:44.369Z,21.27
2019-01-29T07:08:12.808Z,22.05
2019-01-29T07:10:41.574Z,28.02
2019-01-29T07:13:10.362Z,23.60
2019-01-29T07:15:56.482Z,23.00
2019-01-29T07:18:33.620Z,21.65
2019-01-29T07:21:03.730Z,23.52
2019-01-29T07:23:32.170Z,23.00
2019-01-29T07:26:00.602Z,22.80
2019-01-29T07:28:29.388Z,25.95
2019-01-29T07:30:57.827Z,23.22
2019-01-29T07:33:26.578Z,24.32
2019-01-29T07:35:55.667Z,25.15
2019-01-29T07:38:24.095Z,24.23
2019-01-29T07:40:52.843Z,25.95
2019-01-29T07:43:21.275Z,26.05
2019-01-29T07:45:49.970Z,25.60
2019-01-29T07:48:18.398Z,25.43
2019-01-29T07:50:47.470Z,26.05
2019-01-29T07:53:15.925Z,27.15
2019-01-29T07:55:44.349Z,24.92
2019-01-29T07:58:12.776Z,25.43
2019-01-29T08:00:42.291Z,22.70
2019-01-29T08:03:11.411Z,22.45
2019-01-29T08:05:40.144Z,25.57
2019-01-29T08:08:08.886Z,23.55
2019-01-29T08:10:37.885Z,22.27
2019-01-29T08:13:06.708Z,21.77
2019-01-29T08:15:35.107Z,22.10
2019-01-29T08:18:03.833Z,22.95
2019-01-29T08:20:32.300Z,23.10
2019-01-29T08:23:00.738Z,22.55
2019-01-29T08:25:29.194Z,23.45
2019-01-29T08:27:58.008Z,24.32
2019-01-29T08:30:26.446Z,24.67
2019-01-29T08:32:54.876Z,24.92
2019-01-29T08:35:23.614Z,24.10
2019-01-29T08:37:52.037Z,23.73
2019-01-29T08:40:20.775Z,25.17
2019-01-29T08:42:49.769Z,26.23
2019-01-29T08:45:18.233Z,23.80
2019-01-29T08:47:46.953Z,26.57
2019-01-29T08:50:18.394Z,25.68
2019-01-29T08:52:47.180Z,28.12
2019-01-29T08:55:15.874Z,29.52
2019-01-29T08:57:44.648Z,31.68
2019-01-29T09:00:14.385Z,29.45
2019-01-29T09:02:42.837Z,33.73
2019-01-29T09:05:11.570Z,34.18
2019-01-29T09:07:40.619Z,32.88
2019-01-29T09:10:10.784Z,34.30
2019-01-29T09:12:39.276Z,32.80
2019-01-29T09:15:09.999Z,34.43
2019-01-29T09:17:38.436Z,31.87
2019-01-29T09:20:07.077Z,33.58
2019-01-29T09:22:35.802Z,34.33
2019-01-29T09:25:04.589Z,35.92
2019-01-29T09:27:33.355Z,37.08
2019-01-29T09:30:01.789Z,37.67
2019-01-29T09:32:30.232Z,39.45
2019-01-29T09:34:58.925Z,39.48
2019-01-29T09:37:27.674Z,40.05
2019-01-29T09:39:56.131Z,40.23
2019-01-29T09:42:25.195Z,39.20
2019-01-29T09:44:53.687Z,40.58
2019-01-29T09:47:22.136Z,38.73
2019-01-29T09:49:50.842Z,36.10
2019-01-29T09:52:19.633Z,34.58
2019-01-29T09:54:48.076Z,35.45
2019-01-29T09:57:16.539Z,33.65
2019-01-29T09:59:45.030Z,35.15
2019-01-29T10:02:13.477Z,34.75
2019-01-29T10:04:42.225Z,35.30
2019-01-29T10:07:10.713Z,35.23
2019-01-29T10:09:39.111Z,37.10
2019-01-29T10:12:07.547Z,38.60
2019-01-29T10:14:35.972Z,37.35
2019-01-29T10:17:04.417Z,33.05
2019-01-29T10:19:33.109Z,33.65
2019-01-29T10:22:01.905Z,30.88
2019-01-29T10:24:30.331Z,30.90
2019-01-29T10:26:58.765Z,31.10
2019-01-29T10:29:27.196Z,30.90
2019-01-29T10:31:55.639Z,29.60
2019-01-29T10:34:24.366Z,25.08
2019-01-29T10:36:52.809Z,25.30
2019-01-29T10:39:21.582Z,25.50
2019-01-29T10:41:50.025Z,22.73
2019-01-29T10:44:18.452Z,23.80
2019-01-29T10:46:47.139Z,22.30
2019-01-29T10:49:15.585Z,25.15
2019-01-29T10:51:44.393Z,22.87
2019-01-29T10:54:12.819Z,21.48
2019-01-29T10:56:41.266Z,21.48
2019-01-29T10:59:10.034Z,20.55
2019-01-29T11:01:38.475Z,20.50
2019-01-29T11:04:07.378Z,20.82
2019-01-29T11:06:36.164Z,22.80
2019-01-29T11:09:08.212Z,23.35
2019-01-29T11:14:04.317Z,25.82
2019-01-29T11:16:32.771Z,24.90
2019-01-29T11:19:03.282Z,20.72
2019-01-29T11:21:31.614Z,20.40
2019-01-29T11:24:00.065Z,20.68
2019-01-29T11:26:28.494Z,20.57
2019-01-29T11:28:57.039Z,20.40
2019-01-29T11:31:25.697Z,21.55
2019-01-29T11:33:54.129Z,19.10
2019-01-29T11:36:22.797Z,19.67
2019-01-29T11:38:51.229Z,20.27
2019-01-29T11:41:19.882Z,18.37
2019-01-29T11:43:48.385Z,20.57
2019-01-29T11:46:16.825Z,19.87
2019-01-29T11:48:45.282Z,19.25
2019-01-29T11:51:13.707Z,21.40
2019-01-29T11:53:42.455Z,20.17
2019-01-29T11:56:11.150Z,20.95
2019-01-29T11:58:39.585Z,21.37
2019-01-29T12:01:13.140Z,20.20
2019-01-29T12:03:41.830Z,18.02
2019-01-29T12:06:10.268Z,16.93
2019-01-29T12:08:38.717Z,19.27
2019-01-29T12:11:07.400Z,17.37
2019-01-29T12:13:35.891Z,18.37
2019-01-29T12:16:04.342Z,18.07
2019-01-29T12:18:32.805Z,17.60
2019-01-29T12:21:01.629Z,41.90
2019-01-29T12:23:30.087Z,54.23
2019-01-29T12:25:58.847Z,33.45
2019-01-29T12:28:27.286Z,43.50
2019-01-29T12:30:56.012Z,22.20
2019-01-29T12:33:24.447Z,22.95
2019-01-29T12:35:54.166Z,25.25
2019-01-29T12:38:23.191Z,28.00
2019-01-29T12:40:51.670Z,49.25
2019-01-29T12:43:20.107Z,20.55
2019-01-29T12:45:48.845Z,41.75
2019-01-29T12:48:17.340Z,31.90
2019-01-29T12:50:51.229Z,41.98
2019-01-29T12:53:22.275Z,22.48
2019-01-29T12:55:50.746Z,26.60
2019-01-29T12:58:19.168Z,26.55
2019-01-29T13:00:53.451Z,27.37
2019-01-29T13:03:21.883Z,31.27
2019-01-29T13:05:50.314Z,22.85
2019-01-29T13:08:21.583Z,41.55
2019-01-29T13:10:50.048Z,73.33
2019-01-29T13:13:18.827Z,30.00
2019-01-29T13:15:47.309Z,74.37
2019-01-29T13:18:15.742Z,32.35
2019-01-29T13:20:44.190Z,77.72
2019-01-29T13:23:12.619Z,49.03
2019-01-29T13:25:41.409Z,28.50
2019-01-29T13:28:09.843Z,22.67
2019-01-29T13:30:38.289Z,23.92
2019-01-29T13:33:09.378Z,22.85
2019-01-29T13:35:37.827Z,18.95
2019-01-29T13:38:06.933Z,18.70
2019-01-29T13:40:36.077Z,17.17
2019-01-29T13:43:05.201Z,16.67
2019-01-29T13:45:33.644Z,15.40
2019-01-29T13:48:02.062Z,16.25
2019-01-29T13:50:33.135Z,20.23
2019-01-29T13:53:02.193Z,15.93
2019-01-29T13:55:30.629Z,11.68
2019-01-29T13:57:59.050Z,25.17
2019-01-29T14:00:29.609Z,39.08
2019-01-29T14:02:58.045Z,15.58
2019-01-29T14:05:26.522Z,16.15
2019-01-29T14:07:54.952Z,20.55
2019-01-29T14:10:23.704Z,10.40
2019-01-29T14:12:52.504Z,14.07
2019-01-29T14:15:38.165Z,18.98
2019-01-29T14:18:08.768Z,25.43
2019-01-29T14:20:37.909Z,17.92
2019-01-29T14:23:07.979Z,13.18
2019-01-29T14:25:36.433Z,13.90
2019-01-29T14:28:04.885Z,12.68
2019-01-29T14:30:33.318Z,13.53
2019-01-29T14:33:01.736Z,34.67
2019-01-29T14:35:30.425Z,21.25
2019-01-29T14:38:46.286Z,13.55
2019-01-29T14:41:15.997Z,13.88
2019-01-29T14:43:50.374Z,12.60
2019-01-29T14:46:19.511Z,13.43
2019-01-29T14:48:47.942Z,12.00
2019-01-29T14:51:16.372Z,11.50
2019-01-29T14:53:44.802Z,14.47
2019-01-29T14:56:13.235Z,18.25
2019-01-29T14:58:42.156Z,10.58
2019-01-29T15:01:10.626Z,10.45
2019-01-29T15:03:39.067Z,10.18
2019-01-29T15:06:07.797Z,11.33
2019-01-29T15:08:36.237Z,10.58
2019-01-29T15:11:04.929Z,10.80
2019-01-29T15:13:33.365Z,10.32
2019-01-29T15:16:09.513Z,9.98
2019-01-29T15:18:41.509Z,9.15
2019-01-29T15:21:09.959Z,10.30
2019-01-29T15:23:38.394Z,11.03
2019-01-29T15:26:06.847Z,10.18
2019-01-29T15:28:35.275Z,10.70
2019-01-29T15:31:03.973Z,10.20
2019-01-29T15:33:32.417Z,10.50
2019-01-29T15:36:00.855Z,10.03
2019-01-29T15:38:29.626Z,10.08
2019-01-29T15:40:58.070Z,10.10
2019-01-29T15:43:26.501Z,10.50
2019-01-29T15:45:54.941Z,10.70
2019-01-29T15:48:24.062Z,11.12
2019-01-29T15:50:52.847Z,10.32
2019-01-29T15:53:21.304Z,10.85
2019-01-29T15:55:50.025Z,11.22
2019-01-29T15:58:18.801Z,10.53
2019-01-29T16:00:47.464Z,10.50
2019-01-29T16:03:15.909Z,11.55
2019-01-29T16:05:44.335Z,11.33
2019-01-29T16:08:12.790Z,10.48
2019-01-29T16:10:41.916Z,10.03
2019-01-29T16:13:10.356Z,10.20
2019-01-29T16:15:39.194Z,9.03
2019-01-29T16:18:07.634Z,9.65
2019-01-29T16:20:36.070Z,7.10
2019-01-29T16:23:06.370Z,7.53
2019-01-29T16:25:35.012Z,7.60
2019-01-29T16:28:03.457Z,6.80
2019-01-29T16:30:31.943Z,6.45
2019-01-29T16:33:00.392Z,6.72
2019-01-29T16:35:30.509Z,6.62
2019-01-29T16:37:58.980Z,10.45
2019-01-29T16:40:27.813Z,13.05
2019-01-29T16:42:56.693Z,9.53
2019-01-29T16:45:27.975Z,7.67
2019-01-29T16:47:56.510Z,7.25
2019-01-29T16:50:24.978Z,7.10
2019-01-29T16:52:53.421Z,7.70
2019-01-29T16:55:21.892Z,9.23
2019-01-29T16:57:50.346Z,7.50
2019-01-29T17:00:29.027Z,7.83
2019-01-29T17:02:57.535Z,7.95
2019-01-29T17:05:26.015Z,8.00
2019-01-29T17:07:54.538Z,8.80
2019-01-29T17:10:23.077Z,9.55
2019-01-29T17:12:51.509Z,9.80
2019-01-29T17:15:22.411Z,10.98
2019-01-29T17:17:50.868Z,10.88
2019-01-29T17:20:22.072Z,11.00
2019-01-29T17:22:50.550Z,11.03
2019-01-29T17:25:18.983Z,11.25
2019-01-29T17:27:47.766Z,10.63
2019-01-29T17:30:30.810Z,15.88
2019-01-29T17:32:59.264Z,12.47
2019-01-29T17:35:27.734Z,11.53
2019-01-29T17:37:56.235Z,11.38
2019-01-29T17:40:25.015Z,10.03
2019-01-29T17:42:53.468Z,9.80
2019-01-29T17:45:25.312Z,10.82
2019-01-29T17:47:53.837Z,9.63
2019-01-29T17:50:24.398Z,12.03
2019-01-29T17:52:53.163Z,10.78
2019-01-29T17:55:22.442Z,10.15
2019-01-29T17:57:51.255Z,10.30
2019-01-29T18:00:23.362Z,9.78
2019-01-29T18:05:19.459Z,10.10
2019-01-29T18:07:48.920Z,10.28
2019-01-29T18:10:17.379Z,9.05
2019-01-29T18:12:46.133Z,9.20
2019-01-29T18:15:17.344Z,9.45
2019-01-29T18:17:48.189Z,11.50
2019-01-29T18:20:16.415Z,10.78
2019-01-29T18:22:44.868Z,12.18
2019-01-29T18:25:13.560Z,11.20
2019-01-29T18:27:42.044Z,11.73
2019-01-29T18:30:13.995Z,12.35
2019-01-29T18:32:42.428Z,10.63
2019-01-29T18:35:11.152Z,13.15
2019-01-29T18:37:39.577Z,14.68
2019-01-29T18:40:09.684Z,14.78
2019-01-29T18:42:38.436Z,14.03
2019-01-29T18:45:07.288Z,12.50
2019-01-29T18:47:35.744Z,14.78
2019-01-29T18:50:05.057Z,16.20
2019-01-29T18:52:33.485Z,14.07
2019-01-29T18:55:02.376Z,16.07
2019-01-29T18:57:30.780Z,15.03
2019-01-29T18:59:59.225Z,17.32
2019-01-29T19:02:27.921Z,18.00
2019-01-29T19:04:56.375Z,16.65
2019-01-29T19:07:24.798Z,18.20
2019-01-29T19:09:53.263Z,18.00
2019-01-29T19:12:21.765Z,18.92
2019-01-29T19:14:50.295Z,16.93
2019-01-29T19:17:19.016Z,15.80
2019-01-29T19:19:47.474Z,14.40
2019-01-29T19:22:16.278Z,13.00
2019-01-29T19:24:44.799Z,13.05
2019-01-29T19:27:13.233Z,13.40
2019-01-29T19:29:41.685Z,15.55
2019-01-29T19:32:10.532Z,15.83
2019-01-29T19:34:39.295Z,19.90
2019-01-29T19:37:07.724Z,21.60
2019-01-29T19:39:36.464Z,23.73
2019-01-29T19:42:04.891Z,17.85
2019-01-29T19:44:33.636Z,18.85
2019-01-29T19:47:02.091Z,18.85
2019-01-29T19:49:30.507Z,17.82
2019-01-29T19:51:59.248Z,17.73
2019-01-29T19:54:27.675Z,20.77
2019-01-29T19:56:56.454Z,19.40
2019-01-29T19:59:24.902Z,20.85
2019-01-29T20:01:53.338Z,21.60
2019-01-29T20:04:22.007Z,18.50
2019-01-29T20:06:50.442Z,19.75
2019-01-29T20:09:18.862Z,20.60
2019-01-29T20:11:47.323Z,19.95
2019-01-29T20:14:15.760Z,19.82
2019-01-29T20:16:44.221Z,20.02
2019-01-29T20:19:12.652Z,19.37
2019-01-29T20:21:41.350Z,18.60
2019-01-29T20:24:09.783Z,16.93
2019-01-29T20:26:38.243Z,18.40
2019-01-29T20:29:06.676Z,18.92
2019-01-29T20:31:35.122Z,17.05
2019-01-29T20:34:03.556Z,18.10
2019-01-29T20:36:32.016Z,15.35
2019-01-29T20:39:00.465Z,15.85
2019-01-29T20:41:28.931Z,14.00
2019-01-29T20:43:57.360Z,14.63
2019-01-29T20:46:26.351Z,15.85
2019-01-29T20:48:55.786Z,16.25
2019-01-29T20:51:24.229Z,16.70
2019-01-29T20:53:52.943Z,14.03
2019-01-29T20:56:21.381Z,19.25
2019-01-29T20:58:52.745Z,18.32
2019-01-29T21:01:20.390Z,19.70
2019-01-29T21:03:48.838Z,20.43
2019-01-29T21:06:17.288Z,20.17
2019-01-29T21:08:45.732Z,19.80
2019-01-29T21:11:14.586Z,14.93
2019-01-29T21:13:43.342Z,21.60
2019-01-29T21:16:11.796Z,18.45
2019-01-29T21:18:40.246Z,20.15
2019-01-29T21:21:08.996Z,23.73
2019-01-29T21:23:37.455Z,22.98
2019-01-29T21:26:06.244Z,21.45
2019-01-29T21:28:34.691Z,18.52
2019-01-29T21:31:03.437Z,19.70
2019-01-29T21:33:31.884Z,13.83
2019-01-29T21:36:00.354Z,13.60
2019-01-29T21:38:29.230Z,18.10
2019-01-29T21:40:58.108Z,16.42
2019-01-29T21:43:27.983Z,17.82
2019-01-29T21:45:56.549Z,22.65
2019-01-29T21:48:25.149Z,25.00
2019-01-29T21:50:53.566Z,18.35
2019-01-29T21:53:22.413Z,21.90
2019-01-29T21:55:51.099Z,20.43
2019-01-29T21:58:19.677Z,19.37
2019-01-29T22:00:48.150Z,19.23
2019-01-29T22:03:16.708Z,15.15
2019-01-29T22:05:45.149Z,15.95
2019-01-29T22:08:13.606Z,16.42
2019-01-29T22:10:42.095Z,18.92
2019-01-29T22:13:12.085Z,22.55
2019-01-29T22:15:41.303Z,22.40
2019-01-29T22:18:11.979Z,22.48
2019-01-29T22:20:40.456Z,20.12
2019-01-29T22:23:09.214Z,51.28
2019-01-29T22:25:37.666Z,31.60
2019-01-29T22:28:08.246Z,17.25
2019-01-29T22:30:37.652Z,21.50
2019-01-29T22:33:07.049Z,20.40
2019-01-29T22:35:35.614Z,15.38
2019-01-29T22:38:04.038Z,21.17
2019-01-29T22:40:32.578Z,14.55
2019-01-29T22:43:01.033Z,13.05
2019-01-29T22:45:29.506Z,14.10
2019-01-29T22:47:57.985Z,19.15
2019-01-29T22:50:29.006Z,26.02
2019-01-29T22:52:57.566Z,27.27
2019-01-29T22:55:26.026Z,25.82
2019-01-29T22:57:54.507Z,17.48
2019-01-29T23:00:48.790Z,19.57
2019-01-29T23:03:21.655Z,22.98
2019-01-29T23:05:55.349Z,24.90
2019-01-29T23:08:24.348Z,16.80
2019-01-29T23:10:52.811Z,21.48
2019-01-29T23:13:21.257Z,24.47
2019-01-29T23:15:50.097Z,22.50
2019-01-29T23:18:18.558Z,24.18
2019-01-29T23:20:46.971Z,26.12
2019-01-29T23:23:15.761Z,26.80
2019-01-29T23:25:44.216Z,19.87
2019-01-29T23:28:13.937Z,18.73
2019-01-29T23:30:42.382Z,16.77
2019-01-29T23:33:10.819Z,19.00
2019-01-29T23:35:41.955Z,16.67
2019-01-29T23:38:10.411Z,15.13
2019-01-29T23:40:39.075Z,19.37
2019-01-29T23:43:07.529Z,17.20
2019-01-29T23:45:35.977Z,14.15
2019-01-29T23:48:04.420Z,19.92
2019-01-29T23:50:32.895Z,15.08
2019-01-29T23:53:01.727Z,19.65
2019-01-29T23:55:30.157Z,16.52
2019-01-29T23:57:58.883Z,20.32
